sensor_id;sensor_type;location;lat;lon;timestamp;P1;durP1;ratioP1;P2;durP2;ratioP2
5042;SDS011;2540;50.928;6.856;2024-03-06T00:02:04;43.47;;;20.30;;
5042;SDS011;2540;50.928;6.856;2024-03-06T00:04:29;36.70;;;18.17;;
5042;SDS011;2540;50.928;6.856;2024-03-06T00:06:55;44.60;;;20.57;;
5042;SDS011;2540;50.928;6.856;2024-03-06T00:09:20;41.70;;;21.40;;
5042;SDS011;2540;50.928;6.856;2024-03-06T00:11:46;39.43;;;19.07;;
5042;SDS011;2540;50.928;6.856;2024-03-06T00:14:11;37.47;;;18.27;;
5042;SDS011;2540;50.928;6.856;2024-03-06T00:16:37;43.73;;;19.53;;
5042;SDS011;2540;50.928;6.856;2024-03-06T00:19:03;39.20;;;19.80;;
5042;SDS011;2540;50.928;6.856;2024-03-06T00:21:29;44.17;;;19.03;;
5042;SDS011;2540;50.928;6.856;2024-03-06T00:23:54;39.17;;;18.00;;
5042;SDS011;2540;50.928;6.856;2024-03-06T00:26:20;49.57;;;21.30;;
5042;SDS011;2540;50.928;6.856;2024-03-06T00:28:46;42.47;;;19.33;;
5042;SDS011;2540;50.928;6.856;2024-03-06T00:31:11;44.97;;;20.07;;
5042;SDS011;2540;50.928;6.856;2024-03-06T00:33:37;45.80;;;20.63;;
5042;SDS011;2540;50.928;6.856;2024-03-06T00:36:03;44.10;;;20.43;;
5042;SDS011;2540;50.928;6.856;2024-03-06T00:38:28;41.90;;;19.17;;
5042;SDS011;2540;50.928;6.856;2024-03-06T00:40:53;40.13;;;18.80;;
5042;SDS011;2540;50.928;6.856;2024-03-06T00:43:19;37.40;;;18.13;;
5042;SDS011;2540;50.928;6.856;2024-03-06T00:45:45;41.27;;;19.67;;
5042;SDS011;2540;50.928;6.856;2024-03-06T00:48:10;43.60;;;17.97;;
5042;SDS011;2540;50.928;6.856;2024-03-06T00:50:36;37.40;;;18.27;;
5042;SDS011;2540;50.928;6.856;2024-03-06T00:53:01;40.40;;;19.10;;
5042;SDS011;2540;50.928;6.856;2024-03-06T00:55:28;38.70;;;18.07;;
5042;SDS011;2540;50.928;6.856;2024-03-06T00:57:53;39.10;;;19.00;;
5042;SDS011;2540;50.928;6.856;2024-03-06T01:00:19;45.60;;;19.90;;
5042;SDS011;2540;50.928;6.856;2024-03-06T01:02:44;33.03;;;17.43;;
5042;SDS011;2540;50.928;6.856;2024-03-06T01:05:10;38.20;;;17.73;;
5042;SDS011;2540;50.928;6.856;2024-03-06T01:07:38;37.23;;;17.07;;
5042;SDS011;2540;50.928;6.856;2024-03-06T01:10:08;42.10;;;19.17;;
5042;SDS011;2540;50.928;6.856;2024-03-06T01:12:34;35.73;;;17.57;;
5042;SDS011;2540;50.928;6.856;2024-03-06T01:15:00;40.30;;;18.93;;
5042;SDS011;2540;50.928;6.856;2024-03-06T01:17:25;41.83;;;18.60;;
5042;SDS011;2540;50.928;6.856;2024-03-06T01:19:51;42.30;;;17.50;;
5042;SDS011;2540;50.928;6.856;2024-03-06T01:22:17;37.10;;;18.03;;
5042;SDS011;2540;50.928;6.856;2024-03-06T01:24:42;33.40;;;15.97;;
5042;SDS011;2540;50.928;6.856;2024-03-06T01:27:08;42.07;;;18.03;;
5042;SDS011;2540;50.928;6.856;2024-03-06T01:29:33;39.23;;;16.30;;
5042;SDS011;2540;50.928;6.856;2024-03-06T01:31:58;34.20;;;16.50;;
5042;SDS011;2540;50.928;6.856;2024-03-06T01:34:24;34.67;;;15.90;;
5042;SDS011;2540;50.928;6.856;2024-03-06T01:36:52;34.07;;;15.30;;
5042;SDS011;2540;50.928;6.856;2024-03-06T01:39:17;35.23;;;16.70;;
5042;SDS011;2540;50.928;6.856;2024-03-06T01:41:46;34.23;;;16.13;;
5042;SDS011;2540;50.928;6.856;2024-03-06T01:44:15;37.93;;;16.10;;
5042;SDS011;2540;50.928;6.856;2024-03-06T01:46:42;31.10;;;15.20;;
5042;SDS011;2540;50.928;6.856;2024-03-06T01:49:08;29.67;;;15.00;;
5042;SDS011;2540;50.928;6.856;2024-03-06T01:51:34;30.10;;;15.47;;
5042;SDS011;2540;50.928;6.856;2024-03-06T01:54:00;33.70;;;14.73;;
5042;SDS011;2540;50.928;6.856;2024-03-06T01:56:28;32.57;;;15.20;;
5042;SDS011;2540;50.928;6.856;2024-03-06T01:58:55;33.00;;;15.40;;
5042;SDS011;2540;50.928;6.856;2024-03-06T02:01:20;32.00;;;15.40;;
5042;SDS011;2540;50.928;6.856;2024-03-06T02:03:46;28.20;;;13.80;;
5042;SDS011;2540;50.928;6.856;2024-03-06T02:06:11;30.17;;;14.03;;
5042;SDS011;2540;50.928;6.856;2024-03-06T02:08:37;28.67;;;14.00;;
5042;SDS011;2540;50.928;6.856;2024-03-06T02:11:02;30.57;;;14.23;;
5042;SDS011;2540;50.928;6.856;2024-03-06T02:13:28;30.30;;;14.67;;
5042;SDS011;2540;50.928;6.856;2024-03-06T02:15:53;30.00;;;13.90;;
5042;SDS011;2540;50.928;6.856;2024-03-06T02:18:19;32.27;;;16.00;;
5042;SDS011;2540;50.928;6.856;2024-03-06T02:20:44;31.73;;;14.93;;
5042;SDS011;2540;50.928;6.856;2024-03-06T02:23:10;33.80;;;16.13;;
5042;SDS011;2540;50.928;6.856;2024-03-06T02:25:36;29.37;;;14.80;;
5042;SDS011;2540;50.928;6.856;2024-03-06T02:28:01;21.37;;;10.80;;
5042;SDS011;2540;50.928;6.856;2024-03-06T02:30:26;25.57;;;12.23;;
5042;SDS011;2540;50.928;6.856;2024-03-06T02:32:52;23.10;;;11.30;;
5042;SDS011;2540;50.928;6.856;2024-03-06T02:35:17;17.50;;;9.83;;
5042;SDS011;2540;50.928;6.856;2024-03-06T02:37:43;20.50;;;11.50;;
5042;SDS011;2540;50.928;6.856;2024-03-06T02:40:09;21.50;;;11.57;;
5042;SDS011;2540;50.928;6.856;2024-03-06T02:42:35;20.70;;;11.50;;
5042;SDS011;2540;50.928;6.856;2024-03-06T02:45:03;23.83;;;11.60;;
5042;SDS011;2540;50.928;6.856;2024-03-06T02:47:30;23.67;;;11.83;;
5042;SDS011;2540;50.928;6.856;2024-03-06T02:49:55;22.53;;;11.93;;
5042;SDS011;2540;50.928;6.856;2024-03-06T02:52:21;22.83;;;12.10;;
5042;SDS011;2540;50.928;6.856;2024-03-06T02:54:46;22.17;;;10.87;;
5042;SDS011;2540;50.928;6.856;2024-03-06T02:57:11;22.23;;;12.10;;
5042;SDS011;2540;50.928;6.856;2024-03-06T02:59:39;22.90;;;12.20;;
5042;SDS011;2540;50.928;6.856;2024-03-06T03:02:05;26.27;;;13.07;;
5042;SDS011;2540;50.928;6.856;2024-03-06T03:04:30;26.20;;;12.10;;
5042;SDS011;2540;50.928;6.856;2024-03-06T03:06:55;23.67;;;12.53;;
5042;SDS011;2540;50.928;6.856;2024-03-06T03:09:21;23.77;;;12.60;;
5042;SDS011;2540;50.928;6.856;2024-03-06T03:11:46;25.37;;;13.20;;
5042;SDS011;2540;50.928;6.856;2024-03-06T03:14:11;23.50;;;12.73;;
5042;SDS011;2540;50.928;6.856;2024-03-06T03:16:36;21.93;;;11.50;;
5042;SDS011;2540;50.928;6.856;2024-03-06T03:19:02;26.83;;;12.73;;
5042;SDS011;2540;50.928;6.856;2024-03-06T03:21:27;25.27;;;12.30;;
5042;SDS011;2540;50.928;6.856;2024-03-06T03:23:52;20.80;;;11.40;;
5042;SDS011;2540;50.928;6.856;2024-03-06T03:26:18;20.80;;;11.07;;
5042;SDS011;2540;50.928;6.856;2024-03-06T03:28:43;20.03;;;10.30;;
5042;SDS011;2540;50.928;6.856;2024-03-06T03:31:09;21.07;;;10.60;;
5042;SDS011;2540;50.928;6.856;2024-03-06T03:33:35;20.50;;;11.17;;
5042;SDS011;2540;50.928;6.856;2024-03-06T03:36:03;23.03;;;12.17;;
5042;SDS011;2540;50.928;6.856;2024-03-06T03:38:29;18.77;;;10.37;;
5042;SDS011;2540;50.928;6.856;2024-03-06T03:40:55;22.57;;;11.30;;
5042;SDS011;2540;50.928;6.856;2024-03-06T03:43:20;15.70;;;8.73;;
5042;SDS011;2540;50.928;6.856;2024-03-06T03:45:46;17.63;;;8.30;;
5042;SDS011;2540;50.928;6.856;2024-03-06T03:48:11;13.93;;;8.00;;
5042;SDS011;2540;50.928;6.856;2024-03-06T03:50:37;16.40;;;9.07;;
5042;SDS011;2540;50.928;6.856;2024-03-06T03:53:02;21.73;;;9.30;;
5042;SDS011;2540;50.928;6.856;2024-03-06T03:55:27;23.27;;;9.00;;
5042;SDS011;2540;50.928;6.856;2024-03-06T03:57:53;16.80;;;8.30;;
5042;SDS011;2540;50.928;6.856;2024-03-06T04:00:18;16.27;;;8.60;;
5042;SDS011;2540;50.928;6.856;2024-03-06T04:02:44;16.03;;;8.63;;
5042;SDS011;2540;50.928;6.856;2024-03-06T04:05:10;17.70;;;8.60;;
5042;SDS011;2540;50.928;6.856;2024-03-06T04:07:35;18.77;;;9.20;;
5042;SDS011;2540;50.928;6.856;2024-03-06T04:10:02;13.37;;;7.90;;
5042;SDS011;2540;50.928;6.856;2024-03-06T04:12:27;16.10;;;8.60;;
5042;SDS011;2540;50.928;6.856;2024-03-06T04:14:53;12.10;;;7.27;;
5042;SDS011;2540;50.928;6.856;2024-03-06T04:17:18;15.93;;;8.70;;
5042;SDS011;2540;50.928;6.856;2024-03-06T04:19:44;13.50;;;7.60;;
5042;SDS011;2540;50.928;6.856;2024-03-06T04:22:10;21.70;;;7.50;;
5042;SDS011;2540;50.928;6.856;2024-03-06T04:24:35;12.40;;;8.03;;
5042;SDS011;2540;50.928;6.856;2024-03-06T04:27:00;14.70;;;7.67;;
5042;SDS011;2540;50.928;6.856;2024-03-06T04:29:26;13.43;;;7.03;;
5042;SDS011;2540;50.928;6.856;2024-03-06T04:31:51;14.70;;;8.00;;
5042;SDS011;2540;50.928;6.856;2024-03-06T04:34:16;14.80;;;7.17;;
5042;SDS011;2540;50.928;6.856;2024-03-06T04:36:42;12.80;;;6.70;;
5042;SDS011;2540;50.928;6.856;2024-03-06T04:39:07;10.30;;;6.10;;
5042;SDS011;2540;50.928;6.856;2024-03-06T04:41:33;9.43;;;5.23;;
5042;SDS011;2540;50.928;6.856;2024-03-06T04:43:58;10.07;;;4.70;;
5042;SDS011;2540;50.928;6.856;2024-03-06T04:46:25;9.17;;;4.80;;
5042;SDS011;2540;50.928;6.856;2024-03-06T04:48:51;10.53;;;4.80;;
5042;SDS011;2540;50.928;6.856;2024-03-06T04:51:16;4.73;;;3.80;;
5042;SDS011;2540;50.928;6.856;2024-03-06T04:53:44;5.20;;;3.93;;
5042;SDS011;2540;50.928;6.856;2024-03-06T04:56:10;7.23;;;4.57;;
5042;SDS011;2540;50.928;6.856;2024-03-06T04:58:35;7.60;;;4.17;;
5042;SDS011;2540;50.928;6.856;2024-03-06T05:01:00;6.27;;;4.03;;
5042;SDS011;2540;50.928;6.856;2024-03-06T05:03:26;7.60;;;4.07;;
5042;SDS011;2540;50.928;6.856;2024-03-06T05:05:51;5.40;;;3.43;;
5042;SDS011;2540;50.928;6.856;2024-03-06T05:08:16;5.50;;;3.40;;
5042;SDS011;2540;50.928;6.856;2024-03-06T05:10:41;4.40;;;3.00;;
5042;SDS011;2540;50.928;6.856;2024-03-06T05:13:07;7.27;;;3.57;;
5042;SDS011;2540;50.928;6.856;2024-03-06T05:15:32;4.27;;;3.17;;
5042;SDS011;2540;50.928;6.856;2024-03-06T05:17:57;5.83;;;3.57;;
5042;SDS011;2540;50.928;6.856;2024-03-06T05:20:23;5.47;;;3.47;;
5042;SDS011;2540;50.928;6.856;2024-03-06T05:22:48;7.63;;;3.73;;
5042;SDS011;2540;50.928;6.856;2024-03-06T05:25:14;12.90;;;3.50;;
5042;SDS011;2540;50.928;6.856;2024-03-06T05:27:39;5.83;;;3.57;;
5042;SDS011;2540;50.928;6.856;2024-03-06T05:30:05;6.33;;;3.33;;
5042;SDS011;2540;50.928;6.856;2024-03-06T05:32:30;7.67;;;4.10;;
5042;SDS011;2540;50.928;6.856;2024-03-06T05:34:56;16.00;;;5.83;;
5042;SDS011;2540;50.928;6.856;2024-03-06T05:37:23;8.90;;;4.40;;
5042;SDS011;2540;50.928;6.856;2024-03-06T05:39:48;8.43;;;4.13;;
5042;SDS011;2540;50.928;6.856;2024-03-06T05:42:13;9.23;;;4.80;;
5042;SDS011;2540;50.928;6.856;2024-03-06T05:44:39;7.90;;;4.17;;
5042;SDS011;2540;50.928;6.856;2024-03-06T05:47:04;6.77;;;4.00;;
5042;SDS011;2540;50.928;6.856;2024-03-06T05:49:31;5.93;;;3.70;;
5042;SDS011;2540;50.928;6.856;2024-03-06T05:51:57;8.20;;;3.70;;
5042;SDS011;2540;50.928;6.856;2024-03-06T05:54:23;4.60;;;3.53;;
5042;SDS011;2540;50.928;6.856;2024-03-06T05:56:48;7.80;;;4.03;;
5042;SDS011;2540;50.928;6.856;2024-03-06T05:59:17;5.50;;;3.50;;
5042;SDS011;2540;50.928;6.856;2024-03-06T06:01:43;5.23;;;3.10;;
5042;SDS011;2540;50.928;6.856;2024-03-06T06:04:09;6.93;;;4.50;;
5042;SDS011;2540;50.928;6.856;2024-03-06T06:06:35;7.50;;;3.50;;
5042;SDS011;2540;50.928;6.856;2024-03-06T06:09:00;9.10;;;4.00;;
5042;SDS011;2540;50.928;6.856;2024-03-06T06:11:26;5.80;;;3.70;;
5042;SDS011;2540;50.928;6.856;2024-03-06T06:13:51;4.27;;;3.43;;
5042;SDS011;2540;50.928;6.856;2024-03-06T06:16:17;6.47;;;3.60;;
5042;SDS011;2540;50.928;6.856;2024-03-06T06:18:42;7.40;;;4.40;;
5042;SDS011;2540;50.928;6.856;2024-03-06T06:21:08;5.43;;;3.83;;
5042;SDS011;2540;50.928;6.856;2024-03-06T06:23:34;7.63;;;3.90;;
5042;SDS011;2540;50.928;6.856;2024-03-06T06:25:59;9.00;;;4.33;;
5042;SDS011;2540;50.928;6.856;2024-03-06T06:28:25;6.10;;;4.20;;
5042;SDS011;2540;50.928;6.856;2024-03-06T06:30:50;8.47;;;3.97;;
5042;SDS011;2540;50.928;6.856;2024-03-06T06:33:17;4.27;;;3.27;;
5042;SDS011;2540;50.928;6.856;2024-03-06T06:35:44;5.03;;;3.37;;
5042;SDS011;2540;50.928;6.856;2024-03-06T06:38:09;11.80;;;3.43;;
5042;SDS011;2540;50.928;6.856;2024-03-06T06:40:34;6.10;;;3.33;;
5042;SDS011;2540;50.928;6.856;2024-03-06T06:43:01;7.00;;;3.27;;
5042;SDS011;2540;50.928;6.856;2024-03-06T06:45:26;5.73;;;3.70;;
5042;SDS011;2540;50.928;6.856;2024-03-06T06:47:51;4.80;;;3.60;;
5042;SDS011;2540;50.928;6.856;2024-03-06T06:50:17;5.43;;;3.80;;
5042;SDS011;2540;50.928;6.856;2024-03-06T06:52:42;6.47;;;3.60;;
5042;SDS011;2540;50.928;6.856;2024-03-06T06:55:08;5.23;;;3.47;;
5042;SDS011;2540;50.928;6.856;2024-03-06T06:57:36;8.53;;;4.30;;
5042;SDS011;2540;50.928;6.856;2024-03-06T07:00:02;7.47;;;3.90;;
5042;SDS011;2540;50.928;6.856;2024-03-06T07:02:44;8.20;;;3.57;;
5042;SDS011;2540;50.928;6.856;2024-03-06T07:05:10;8.13;;;3.70;;
5042;SDS011;2540;50.928;6.856;2024-03-06T07:07:36;5.33;;;4.30;;
5042;SDS011;2540;50.928;6.856;2024-03-06T07:10:02;6.07;;;4.20;;
5042;SDS011;2540;50.928;6.856;2024-03-06T07:12:28;7.60;;;3.83;;
5042;SDS011;2540;50.928;6.856;2024-03-06T07:14:53;4.30;;;3.20;;
5042;SDS011;2540;50.928;6.856;2024-03-06T07:17:18;4.90;;;3.40;;
5042;SDS011;2540;50.928;6.856;2024-03-06T07:19:47;5.03;;;2.87;;
5042;SDS011;2540;50.928;6.856;2024-03-06T07:22:31;8.87;;;3.93;;
5042;SDS011;2540;50.928;6.856;2024-03-06T07:24:56;7.70;;;3.53;;
5042;SDS011;2540;50.928;6.856;2024-03-06T07:27:22;7.90;;;3.00;;
5042;SDS011;2540;50.928;6.856;2024-03-06T07:29:47;6.40;;;3.50;;
5042;SDS011;2540;50.928;6.856;2024-03-06T07:32:12;4.73;;;3.77;;
5042;SDS011;2540;50.928;6.856;2024-03-06T07:34:38;4.47;;;3.23;;
5042;SDS011;2540;50.928;6.856;2024-03-06T07:37:03;10.77;;;3.47;;
5042;SDS011;2540;50.928;6.856;2024-03-06T07:39:29;5.80;;;4.27;;
5042;SDS011;2540;50.928;6.856;2024-03-06T07:41:56;7.40;;;3.50;;
5042;SDS011;2540;50.928;6.856;2024-03-06T07:44:21;8.50;;;3.30;;
5042;SDS011;2540;50.928;6.856;2024-03-06T07:46:46;9.07;;;4.63;;
5042;SDS011;2540;50.928;6.856;2024-03-06T07:49:12;6.43;;;3.43;;
5042;SDS011;2540;50.928;6.856;2024-03-06T07:51:37;13.03;;;4.70;;
5042;SDS011;2540;50.928;6.856;2024-03-06T07:54:03;11.07;;;5.00;;
5042;SDS011;2540;50.928;6.856;2024-03-06T07:56:29;9.47;;;4.70;;
5042;SDS011;2540;50.928;6.856;2024-03-06T07:58:54;17.17;;;4.70;;
5042;SDS011;2540;50.928;6.856;2024-03-06T08:01:20;6.50;;;4.20;;
5042;SDS011;2540;50.928;6.856;2024-03-06T08:03:46;8.30;;;4.73;;
5042;SDS011;2540;50.928;6.856;2024-03-06T08:06:11;8.43;;;4.57;;
5042;SDS011;2540;50.928;6.856;2024-03-06T08:08:39;15.23;;;5.37;;
5042;SDS011;2540;50.928;6.856;2024-03-06T08:11:05;9.03;;;4.67;;
5042;SDS011;2540;50.928;6.856;2024-03-06T08:13:30;7.50;;;4.27;;
5042;SDS011;2540;50.928;6.856;2024-03-06T08:15:56;8.43;;;4.20;;
5042;SDS011;2540;50.928;6.856;2024-03-06T08:18:22;8.43;;;4.37;;
5042;SDS011;2540;50.928;6.856;2024-03-06T08:20:48;7.93;;;4.13;;
5042;SDS011;2540;50.928;6.856;2024-03-06T08:23:13;7.83;;;4.93;;
5042;SDS011;2540;50.928;6.856;2024-03-06T08:25:38;7.47;;;4.27;;
5042;SDS011;2540;50.928;6.856;2024-03-06T08:28:04;9.53;;;4.47;;
5042;SDS011;2540;50.928;6.856;2024-03-06T08:30:30;6.60;;;4.07;;
5042;SDS011;2540;50.928;6.856;2024-03-06T08:32:56;6.40;;;3.20;;
5042;SDS011;2540;50.928;6.856;2024-03-06T08:35:21;5.97;;;3.57;;
5042;SDS011;2540;50.928;6.856;2024-03-06T08:37:48;10.07;;;4.10;;
5042;SDS011;2540;50.928;6.856;2024-03-06T08:40:14;6.77;;;3.30;;
5042;SDS011;2540;50.928;6.856;2024-03-06T08:42:42;5.80;;;3.53;;
5042;SDS011;2540;50.928;6.856;2024-03-06T08:45:13;5.90;;;3.30;;
5042;SDS011;2540;50.928;6.856;2024-03-06T08:47:42;10.30;;;4.10;;
5042;SDS011;2540;50.928;6.856;2024-03-06T08:50:08;6.73;;;3.50;;
5042;SDS011;2540;50.928;6.856;2024-03-06T08:52:34;8.30;;;3.53;;
5042;SDS011;2540;50.928;6.856;2024-03-06T08:55:00;5.60;;;3.90;;
5042;SDS011;2540;50.928;6.856;2024-03-06T08:57:25;7.60;;;3.33;;
5042;SDS011;2540;50.928;6.856;2024-03-06T08:59:53;5.83;;;3.70;;
5042;SDS011;2540;50.928;6.856;2024-03-06T09:02:19;6.40;;;3.90;;
5042;SDS011;2540;50.928;6.856;2024-03-06T09:04:45;5.53;;;3.70;;
5042;SDS011;2540;50.928;6.856;2024-03-06T09:07:11;11.20;;;5.07;;
5042;SDS011;2540;50.928;6.856;2024-03-06T09:09:36;6.70;;;3.60;;
5042;SDS011;2540;50.928;6.856;2024-03-06T09:12:05;7.57;;;4.77;;
5042;SDS011;2540;50.928;6.856;2024-03-06T09:14:32;9.00;;;4.30;;
5042;SDS011;2540;50.928;6.856;2024-03-06T09:16:57;7.50;;;4.47;;
5042;SDS011;2540;50.928;6.856;2024-03-06T09:19:23;10.30;;;4.87;;
5042;SDS011;2540;50.928;6.856;2024-03-06T09:21:48;8.13;;;4.77;;
5042;SDS011;2540;50.928;6.856;2024-03-06T09:24:13;10.73;;;5.17;;
5042;SDS011;2540;50.928;6.856;2024-03-06T09:26:39;10.53;;;5.47;;
5042;SDS011;2540;50.928;6.856;2024-03-06T09:29:04;7.50;;;5.07;;
5042;SDS011;2540;50.928;6.856;2024-03-06T09:31:29;15.30;;;7.43;;
5042;SDS011;2540;50.928;6.856;2024-03-06T09:33:55;8.53;;;4.87;;
5042;SDS011;2540;50.928;6.856;2024-03-06T09:36:20;10.80;;;6.00;;
5042;SDS011;2540;50.928;6.856;2024-03-06T09:38:46;9.27;;;5.07;;
5042;SDS011;2540;50.928;6.856;2024-03-06T09:41:11;10.30;;;5.73;;
5042;SDS011;2540;50.928;6.856;2024-03-06T09:43:36;8.80;;;5.30;;
5042;SDS011;2540;50.928;6.856;2024-03-06T09:46:02;12.10;;;5.30;;
5042;SDS011;2540;50.928;6.856;2024-03-06T09:48:27;16.10;;;5.10;;
5042;SDS011;2540;50.928;6.856;2024-03-06T09:50:54;18.57;;;6.30;;
5042;SDS011;2540;50.928;6.856;2024-03-06T09:53:23;9.73;;;5.50;;
5042;SDS011;2540;50.928;6.856;2024-03-06T09:55:49;10.70;;;5.23;;
5042;SDS011;2540;50.928;6.856;2024-03-06T09:58:14;9.77;;;5.87;;
5042;SDS011;2540;50.928;6.856;2024-03-06T10:00:40;8.63;;;5.87;;
5042;SDS011;2540;50.928;6.856;2024-03-06T10:03:05;15.90;;;6.30;;
5042;SDS011;2540;50.928;6.856;2024-03-06T10:05:32;13.50;;;7.00;;
5042;SDS011;2540;50.928;6.856;2024-03-06T10:08:00;11.63;;;6.27;;
5042;SDS011;2540;50.928;6.856;2024-03-06T10:10:25;17.80;;;7.60;;
5042;SDS011;2540;50.928;6.856;2024-03-06T10:12:51;13.27;;;6.60;;
5042;SDS011;2540;50.928;6.856;2024-03-06T10:15:17;8.93;;;5.80;;
5042;SDS011;2540;50.928;6.856;2024-03-06T10:17:43;14.43;;;7.13;;
5042;SDS011;2540;50.928;6.856;2024-03-06T10:20:23;10.33;;;6.33;;
5042;SDS011;2540;50.928;6.856;2024-03-06T10:22:52;11.10;;;5.67;;
5042;SDS011;2540;50.928;6.856;2024-03-06T10:25:18;10.63;;;5.30;;
5042;SDS011;2540;50.928;6.856;2024-03-06T10:28:06;13.20;;;6.93;;
5042;SDS011;2540;50.928;6.856;2024-03-06T10:30:32;14.83;;;6.67;;
5042;SDS011;2540;50.928;6.856;2024-03-06T10:33:00;13.37;;;6.83;;
5042;SDS011;2540;50.928;6.856;2024-03-06T10:35:25;15.53;;;7.57;;
5042;SDS011;2540;50.928;6.856;2024-03-06T10:37:51;12.73;;;7.30;;
5042;SDS011;2540;50.928;6.856;2024-03-06T10:40:18;17.53;;;8.53;;
5042;SDS011;2540;50.928;6.856;2024-03-06T10:42:44;13.00;;;6.83;;
5042;SDS011;2540;50.928;6.856;2024-03-06T10:45:10;16.30;;;7.47;;
5042;SDS011;2540;50.928;6.856;2024-03-06T10:47:39;12.00;;;6.53;;
5042;SDS011;2540;50.928;6.856;2024-03-06T10:50:05;16.77;;;6.70;;
5042;SDS011;2540;50.928;6.856;2024-03-06T10:52:35;14.47;;;7.87;;
5042;SDS011;2540;50.928;6.856;2024-03-06T10:55:02;16.67;;;7.83;;
5042;SDS011;2540;50.928;6.856;2024-03-06T10:57:29;17.83;;;7.60;;
5042;SDS011;2540;50.928;6.856;2024-03-06T10:59:55;14.83;;;7.10;;
5042;SDS011;2540;50.928;6.856;2024-03-06T11:02:24;12.40;;;7.03;;
5042;SDS011;2540;50.928;6.856;2024-03-06T11:04:50;11.10;;;7.33;;
5042;SDS011;2540;50.928;6.856;2024-03-06T11:07:16;15.70;;;7.10;;
5042;SDS011;2540;50.928;6.856;2024-03-06T11:09:41;25.60;;;7.67;;
5042;SDS011;2540;50.928;6.856;2024-03-06T11:12:07;11.27;;;7.03;;
5042;SDS011;2540;50.928;6.856;2024-03-06T11:14:33;24.87;;;7.77;;
5042;SDS011;2540;50.928;6.856;2024-03-06T11:17:02;9.60;;;6.30;;
5042;SDS011;2540;50.928;6.856;2024-03-06T11:19:29;14.10;;;7.30;;
5042;SDS011;2540;50.928;6.856;2024-03-06T11:21:55;10.53;;;6.80;;
5042;SDS011;2540;50.928;6.856;2024-03-06T11:24:21;19.93;;;7.90;;
5042;SDS011;2540;50.928;6.856;2024-03-06T11:29:21;14.60;;;6.70;;
5042;SDS011;2540;50.928;6.856;2024-03-06T11:31:57;12.53;;;6.40;;
5042;SDS011;2540;50.928;6.856;2024-03-06T11:34:33;11.40;;;6.07;;
5042;SDS011;2540;50.928;6.856;2024-03-06T11:36:59;9.73;;;6.17;;
5042;SDS011;2540;50.928;6.856;2024-03-06T11:39:32;10.80;;;6.60;;
5042;SDS011;2540;50.928;6.856;2024-03-06T11:41:59;18.67;;;7.47;;
5042;SDS011;2540;50.928;6.856;2024-03-06T11:44:24;16.57;;;7.27;;
5042;SDS011;2540;50.928;6.856;2024-03-06T11:46:56;12.63;;;6.47;;
5042;SDS011;2540;50.928;6.856;2024-03-06T11:49:23;12.47;;;7.73;;
5042;SDS011;2540;50.928;6.856;2024-03-06T11:51:53;11.13;;;6.80;;
5042;SDS011;2540;50.928;6.856;2024-03-06T11:54:20;16.93;;;7.37;;
5042;SDS011;2540;50.928;6.856;2024-03-06T11:56:49;9.80;;;5.93;;
5042;SDS011;2540;50.928;6.856;2024-03-06T11:59:16;13.30;;;6.20;;
5042;SDS011;2540;50.928;6.856;2024-03-06T12:01:41;12.03;;;6.87;;
5042;SDS011;2540;50.928;6.856;2024-03-06T12:04:07;11.43;;;6.90;;
5042;SDS011;2540;50.928;6.856;2024-03-06T12:06:32;9.10;;;5.93;;
5042;SDS011;2540;50.928;6.856;2024-03-06T12:08:58;14.93;;;6.00;;
5042;SDS011;2540;50.928;6.856;2024-03-06T12:11:23;14.50;;;6.33;;
5042;SDS011;2540;50.928;6.856;2024-03-06T12:13:50;19.10;;;6.27;;
5042;SDS011;2540;50.928;6.856;2024-03-06T12:16:16;8.03;;;5.40;;
5042;SDS011;2540;50.928;6.856;2024-03-06T12:18:42;11.90;;;5.57;;
5042;SDS011;2540;50.928;6.856;2024-03-06T12:21:07;10.50;;;5.73;;
5042;SDS011;2540;50.928;6.856;2024-03-06T12:23:33;8.97;;;5.40;;
5042;SDS011;2540;50.928;6.856;2024-03-06T12:26:05;12.97;;;5.00;;
5042;SDS011;2540;50.928;6.856;2024-03-06T12:28:35;9.23;;;5.50;;
5042;SDS011;2540;50.928;6.856;2024-03-06T12:31:04;12.27;;;5.10;;
5042;SDS011;2540;50.928;6.856;2024-03-06T12:33:30;9.13;;;5.03;;
5042;SDS011;2540;50.928;6.856;2024-03-06T12:36:06;9.73;;;6.13;;
5042;SDS011;2540;50.928;6.856;2024-03-06T12:38:35;13.00;;;6.00;;
5042;SDS011;2540;50.928;6.856;2024-03-06T12:41:01;21.30;;;6.00;;
5042;SDS011;2540;50.928;6.856;2024-03-06T12:43:26;10.40;;;6.30;;
5042;SDS011;2540;50.928;6.856;2024-03-06T12:45:53;15.13;;;7.27;;
5042;SDS011;2540;50.928;6.856;2024-03-06T12:48:20;14.50;;;6.60;;
5042;SDS011;2540;50.928;6.856;2024-03-06T12:50:46;15.50;;;7.30;;
5042;SDS011;2540;50.928;6.856;2024-03-06T12:53:16;14.73;;;7.70;;
5042;SDS011;2540;50.928;6.856;2024-03-06T12:55:41;19.20;;;9.30;;
5042;SDS011;2540;50.928;6.856;2024-03-06T12:58:10;17.00;;;9.40;;
5042;SDS011;2540;50.928;6.856;2024-03-06T13:00:36;16.40;;;9.10;;
5042;SDS011;2540;50.928;6.856;2024-03-06T13:03:01;17.17;;;8.97;;
5042;SDS011;2540;50.928;6.856;2024-03-06T13:05:26;20.20;;;8.80;;
5042;SDS011;2540;50.928;6.856;2024-03-06T13:07:51;12.10;;;7.80;;
5042;SDS011;2540;50.928;6.856;2024-03-06T13:10:17;17.00;;;8.53;;
5042;SDS011;2540;50.928;6.856;2024-03-06T13:12:42;14.60;;;8.60;;
5042;SDS011;2540;50.928;6.856;2024-03-06T13:15:07;14.03;;;7.57;;
5042;SDS011;2540;50.928;6.856;2024-03-06T13:17:33;14.70;;;8.03;;
5042;SDS011;2540;50.928;6.856;2024-03-06T13:19:59;13.53;;;7.97;;
5042;SDS011;2540;50.928;6.856;2024-03-06T13:22:24;14.10;;;8.40;;
5042;SDS011;2540;50.928;6.856;2024-03-06T13:24:50;12.97;;;6.80;;
5042;SDS011;2540;50.928;6.856;2024-03-06T13:27:16;17.20;;;8.40;;
5042;SDS011;2540;50.928;6.856;2024-03-06T13:29:41;14.07;;;7.73;;
5042;SDS011;2540;50.928;6.856;2024-03-06T13:32:07;13.10;;;7.43;;
5042;SDS011;2540;50.928;6.856;2024-03-06T13:34:32;11.30;;;6.50;;
5042;SDS011;2540;50.928;6.856;2024-03-06T13:36:58;14.87;;;6.90;;
5042;SDS011;2540;50.928;6.856;2024-03-06T13:39:23;11.07;;;6.80;;
5042;SDS011;2540;50.928;6.856;2024-03-06T13:41:49;8.63;;;5.87;;
5042;SDS011;2540;50.928;6.856;2024-03-06T13:44:14;12.53;;;6.87;;
5042;SDS011;2540;50.928;6.856;2024-03-06T13:46:39;10.57;;;6.40;;
5042;SDS011;2540;50.928;6.856;2024-03-06T13:49:05;16.17;;;5.73;;
5042;SDS011;2540;50.928;6.856;2024-03-06T13:51:30;11.03;;;6.57;;
5042;SDS011;2540;50.928;6.856;2024-03-06T13:53:55;14.70;;;7.20;;
5042;SDS011;2540;50.928;6.856;2024-03-06T13:56:21;13.43;;;7.13;;
5042;SDS011;2540;50.928;6.856;2024-03-06T13:58:46;12.83;;;6.87;;
5042;SDS011;2540;50.928;6.856;2024-03-06T14:01:11;10.00;;;6.23;;
5042;SDS011;2540;50.928;6.856;2024-03-06T14:03:37;11.10;;;7.00;;
5042;SDS011;2540;50.928;6.856;2024-03-06T14:06:04;11.67;;;7.47;;
5042;SDS011;2540;50.928;6.856;2024-03-06T14:08:32;10.83;;;6.53;;
5042;SDS011;2540;50.928;6.856;2024-03-06T14:10:57;10.70;;;6.50;;
5042;SDS011;2540;50.928;6.856;2024-03-06T14:13:22;10.70;;;6.30;;
5042;SDS011;2540;50.928;6.856;2024-03-06T14:15:51;10.87;;;5.50;;
5042;SDS011;2540;50.928;6.856;2024-03-06T14:18:18;12.03;;;6.63;;
5042;SDS011;2540;50.928;6.856;2024-03-06T14:20:43;8.77;;;5.53;;
5042;SDS011;2540;50.928;6.856;2024-03-06T14:23:09;11.97;;;6.43;;
5042;SDS011;2540;50.928;6.856;2024-03-06T14:25:34;8.80;;;5.50;;
5042;SDS011;2540;50.928;6.856;2024-03-06T14:28:02;12.00;;;5.77;;
5042;SDS011;2540;50.928;6.856;2024-03-06T14:30:28;7.83;;;5.23;;
5042;SDS011;2540;50.928;6.856;2024-03-06T14:32:53;10.23;;;5.13;;
5042;SDS011;2540;50.928;6.856;2024-03-06T14:35:18;9.40;;;5.40;;
5042;SDS011;2540;50.928;6.856;2024-03-06T14:37:44;10.03;;;6.00;;
5042;SDS011;2540;50.928;6.856;2024-03-06T14:40:09;10.10;;;5.73;;
5042;SDS011;2540;50.928;6.856;2024-03-06T14:42:35;11.10;;;5.53;;
5042;SDS011;2540;50.928;6.856;2024-03-06T14:45:00;9.63;;;6.00;;
5042;SDS011;2540;50.928;6.856;2024-03-06T14:47:26;12.27;;;6.90;;
5042;SDS011;2540;50.928;6.856;2024-03-06T14:49:52;13.70;;;5.80;;
5042;SDS011;2540;50.928;6.856;2024-03-06T14:52:18;12.00;;;6.17;;
5042;SDS011;2540;50.928;6.856;2024-03-06T14:54:44;8.07;;;5.20;;
5042;SDS011;2540;50.928;6.856;2024-03-06T14:57:11;7.63;;;4.80;;
5042;SDS011;2540;50.928;6.856;2024-03-06T14:59:37;7.70;;;5.43;;